createdAt,value
2022-10-22T00:03:07.246Z,11
2022-10-22T00:13:07.923Z,10.9
2022-10-22T00:23:08.066Z,10.8
2022-10-22T00:33:08.877Z,11
2022-10-22T00:43:09.901Z,11.1
2022-10-22T00:53:10.166Z,10.9
2022-10-22T01:03:11.055Z,11
2022-10-22T01:13:11.886Z,10.9
2022-10-22T01:23:12.053Z,10.9
2022-10-22T01:33:12.491Z,10.7
2022-10-22T01:43:13.359Z,10.7
2022-10-22T01:53:13.799Z,10.7
2022-10-22T02:03:13.988Z,11
2022-10-22T02:13:14.787Z,11
2022-10-22T02:23:15.273Z,10.9
2022-10-22T02:33:15.575Z,10.9
2022-10-22T02:43:15.857Z,10.7
2022-10-22T02:53:16.678Z,10.4
2022-10-22T03:03:17.280Z,10.4
2022-10-22T03:13:17.807Z,10.4
2022-10-22T03:23:18.527Z,10.3
2022-10-22T03:33:19.051Z,10.3
2022-10-22T03:43:19.507Z,10.2
2022-10-22T03:53:20.405Z,10.1
2022-10-22T04:03:20.825Z,9.9
2022-10-22T04:13:21.503Z,9.8
2022-10-22T04:23:22.079Z,9.8
2022-10-22T04:33:22.558Z,9.7
2022-10-22T04:43:23.556Z,9.6
2022-10-22T04:53:24.098Z,9.7
2022-10-22T05:03:24.766Z,9.3
2022-10-22T05:13:25.615Z,9.2
2022-10-22T05:23:26.427Z,9.3
2022-10-22T05:33:26.935Z,9.4
2022-10-22T05:53:27.936Z,9.6
2022-10-22T06:03:28.779Z,9.7
2022-10-22T06:23:30.154Z,10.9
2022-10-22T06:33:30.530Z,11.2
2022-10-22T06:53:32.230Z,12.1
2022-10-22T07:03:32.951Z,12.4
2022-10-22T07:13:33.165Z,12.8
2022-10-22T07:23:33.625Z,13.3
2022-10-22T07:33:34.011Z,13.1
2022-10-22T07:43:34.211Z,13
2022-10-22T07:53:34.437Z,13
2022-10-22T08:03:35.115Z,13.4
2022-10-22T08:13:35.563Z,13.8
